Time;durP1;ratioP1;P1;durP2;ratioP2;P2;SDS_P1;SDS_P2;PMS_P1;PMS_P2;Temp;Humidity;BMP_temperature;BMP_pressure;BME280_temperature;BME280_humidity;BME280_pressure;Samples;Min_cycle;Max_cycle;Signal;HPM_P1;HPM_P2
2023/12/21 00:01:34;;;;;;;;;;;;;;;17.01;44.82;98705.84;10328998;28;1961;-71
2023/12/21 00:06:30;;;;;;;;;;;;;;;17.00;44.92;98717.34;10329631;28;813;-71
2023/12/21 00:11:26;;;;;;;;;;;;;;;16.98;44.84;98695.50;10329313;28;968;-71
2023/12/21 00:16:22;;;;;;;;;;;;;;;16.99;45.06;98704.25;10328718;28;765;-71
2023/12/21 00:21:18;;;;;;;;;;;;;;;17.01;44.92;98681.31;10328220;28;1959;-70
2023/12/21 00:26:14;;;;;;;;;;;;;;;16.98;44.85;98677.06;10328209;28;905;-71
2023/12/21 00:31:10;;;;;;;;;;;;;;;16.98;44.82;98682.34;10328516;28;831;-71
2023/12/21 00:36:06;;;;;;;;;;;;;;;16.95;45.01;98687.78;10327825;28;1181;-70
2023/12/21 00:41:02;;;;;;;;;;;;;;;16.98;45.12;98686.75;10328115;28;1963;-71
2023/12/21 00:45:57;;;;;;;;;;;;;;;16.98;45.04;98698.13;10327828;28;905;-71
2023/12/21 00:50:53;;;;;;;;;;;;;;;16.96;44.91;98678.09;10326563;28;920;-70
2023/12/21 00:55:49;;;;;;;;;;;;;;;16.95;44.91;98666.72;10327554;28;845;-71
2023/12/21 01:00:45;;;;;;;;;;;;;;;16.94;44.91;98654.47;10327262;28;1966;-71
2023/12/21 01:05:41;;;;;;;;;;;;;;;16.95;45.17;98650.06;10326485;28;870;-71
2023/12/21 01:10:38;;;;;;;;;;;;;;;16.93;45.21;98642.25;10327095;28;778;-71
2023/12/21 01:15:34;;;;;;;;;;;;;;;16.93;45.27;98646.69;10326216;28;873;-71
2023/12/21 01:20:30;;;;;;;;;;;;;;;16.96;45.14;98635.97;10327243;28;1911;-71
2023/12/21 01:25:25;;;;;;;;;;;;;;;16.94;45.13;98627.31;10326711;28;834;-71
2023/12/21 01:30:23;;;;;;;;;;;;;;;16.94;45.24;98622.06;10326419;28;808;-70
2023/12/21 01:35:19;;;;;;;;;;;;;;;16.93;45.04;98601.94;10324953;28;1410;-70
2023/12/21 01:40:15;;;;;;;;;;;;;;;16.94;45.17;98580.78;10326234;28;1910;-71
2023/12/21 01:45:11;;;;;;;;;;;;;;;16.92;45.31;98572.13;10325049;28;806;-71
2023/12/21 01:50:06;;;;;;;;;;;;;;;16.92;45.22;98560.75;10324919;28;1044;-71
2023/12/21 01:55:03;;;;;;;;;;;;;;;16.91;45.09;98538.84;10325949;28;944;-71
2023/12/21 01:59:59;;;;;;;;;;;;;;;16.89;45.34;98543.34;10325058;28;1953;-71
2023/12/21 02:04:54;;;;;;;;;;;;;;;16.90;45.25;98536.28;10325908;28;944;-71
2023/12/21 02:09:50;;;;;;;;;;;;;;;16.91;45.15;98543.28;10325042;28;781;-71
2023/12/21 02:14:46;;;;;;;;;;;;;;;16.88;45.48;98511.88;10325803;28;851;-71
2023/12/21 02:19:42;;;;;;;;;;;;;;;16.86;45.42;98518.06;10324719;28;1893;-71
2023/12/21 02:24:38;;;;;;;;;;;;;;;16.90;45.17;98525.78;10325396;28;934;-71
2023/12/21 02:29:34;;;;;;;;;;;;;;;16.86;45.41;98520.69;10324670;28;865;-71
2023/12/21 02:34:30;;;;;;;;;;;;;;;16.89;45.22;98524.09;10324497;28;834;-70
2023/12/21 02:39:26;;;;;;;;;;;;;;;16.85;45.33;98508.47;10325406;28;1910;-70
2023/12/21 02:44:22;;;;;;;;;;;;;;;16.85;45.29;98505.00;10324385;28;886;-71
2023/12/21 02:49:18;;;;;;;;;;;;;;;16.85;45.32;98495.31;10324892;28;935;-71
2023/12/21 02:54:14;;;;;;;;;;;;;;;16.85;45.35;98495.31;10324136;28;877;-71
2023/12/21 02:59:10;;;;;;;;;;;;;;;16.83;45.60;98483.19;10329673;28;1961;-70
2023/12/21 03:04:06;;;;;;;;;;;;;;;16.83;45.35;98464.78;10331298;28;894;-71
2023/12/21 03:09:02;;;;;;;;;;;;;;;16.83;45.28;98436.66;10331785;28;802;-71
2023/12/21 03:13:57;;;;;;;;;;;;;;;16.85;45.29;98431.31;10331002;28;955;-70
2023/12/21 03:18:53;;;;;;;;;;;;;;;16.85;45.28;98424.25;10330880;28;1951;-70
2023/12/21 03:23:49;;;;;;;;;;;;;;;16.82;45.61;98418.31;10331323;28;825;-70
2023/12/21 03:28:45;;;;;;;;;;;;;;;16.85;45.52;98418.16;10330481;28;763;-71
2023/12/21 03:33:41;;;;;;;;;;;;;;;16.84;45.33;98412.03;10330208;28;873;-70
2023/12/21 03:38:37;;;;;;;;;;;;;;;16.82;45.58;98390.25;10329650;28;2001;-70
2023/12/21 03:43:33;;;;;;;;;;;;;;;16.84;45.40;98374.34;10329908;28;837;-71
2023/12/21 03:48:29;;;;;;;;;;;;;;;16.84;45.36;98348.03;10329608;28;925;-71
2023/12/21 03:53:25;;;;;;;;;;;;;;;16.83;45.29;98341.94;10329488;28;865;-71
2023/12/21 03:58:21;;;;;;;;;;;;;;;16.81;45.55;98328.00;10329247;28;1898;-70
2023/12/21 04:03:16;;;;;;;;;;;;;;;16.82;45.59;98316.56;10329724;28;851;-71
2023/12/21 04:08:13;;;;;;;;;;;;;;;16.84;45.57;98321.72;10329123;28;849;-71
2023/12/21 04:13:08;;;;;;;;;;;;;;;16.83;45.56;98305.09;10328724;28;861;-71
2023/12/21 04:18:04;;;;;;;;;;;;;;;16.83;45.57;98305.09;10329075;28;1956;-71
2023/12/21 04:23:00;;;;;;;;;;;;;;;16.82;45.44;98313.94;10328324;28;913;-71
2023/12/21 04:27:56;;;;;;;;;;;;;;;16.82;45.41;98311.31;10328166;28;829;-71
2023/12/21 04:32:52;;;;;;;;;;;;;;;16.83;45.44;98299.81;10327910;28;879;-70
2023/12/21 04:37:48;;;;;;;;;;;;;;;16.83;45.63;98288.47;10327760;28;1984;-71
2023/12/21 04:42:47;;;;;;;;;;;;;;;16.84;45.40;98274.34;10328330;28;774;-70
2023/12/21 04:47:42;;;;;;;;;;;;;;;16.83;45.41;98223.50;10327266;28;889;-71
2023/12/21 04:52:38;;;;;;;;;;;;;;;16.86;45.22;98204.06;10326541;28;1004;-71
2023/12/21 04:57:34;;;;;;;;;;;;;;;16.91;45.44;98206.41;10326850;28;1902;-71
2023/12/21 05:02:30;;;;;;;;;;;;;;;16.93;45.22;98201.88;10327314;28;817;-71
2023/12/21 05:07:26;;;;;;;;;;;;;;;16.97;45.25;98188.41;10327170;28;943;-71
2023/12/21 05:12:22;;;;;;;;;;;;;;;16.97;45.31;98174.41;10326399;28;810;-72
2023/12/21 05:17:18;;;;;;;;;;;;;;;17.00;45.27;98158.41;10326224;28;1965;-71
2023/12/21 05:22:14;;;;;;;;;;;;;;;17.07;45.39;98142.13;10325482;28;794;-72
2023/12/21 05:27:10;;;;;;;;;;;;;;;17.11;45.38;98131.38;10326563;28;822;-71
2023/12/21 05:32:07;;;;;;;;;;;;;;;17.11;45.33;98134.88;10326128;28;925;-75
2023/12/21 05:37:03;;;;;;;;;;;;;;;17.14;45.60;98128.56;10325844;28;1906;-72
2023/12/21 05:42:00;;;;;;;;;;;;;;;17.14;45.46;98121.50;10325577;28;1068;-71
2023/12/21 05:46:56;;;;;;;;;;;;;;;17.15;45.67;98112.66;10325548;28;880;-71
2023/12/21 05:51:51;;;;;;;;;;;;;;;17.10;45.77;98112.09;10325378;28;882;-73
2023/12/21 05:56:47;;;;;;;;;;;;;;;17.15;45.62;98120.53;10325360;28;795;-72
2023/12/21 06:01:45;;;;;;;;;;;;;;;17.14;45.61;98102.25;10324591;28;1910;-71
2023/12/21 06:06:41;;;;;;;;;;;;;;;17.12;45.72;98106.75;10320477;28;1156;-71
2023/12/21 06:11:37;;;;;;;;;;;;;;;17.14;45.65;98108.34;10324152;28;915;-71
2023/12/21 06:16:32;;;;;;;;;;;;;;;17.13;45.60;98093.47;10324912;28;853;-72
2023/12/21 06:21:28;;;;;;;;;;;;;;;17.09;45.68;98090.22;10324572;28;1894;-72
2023/12/21 06:26:24;;;;;;;;;;;;;;;17.17;45.70;98086.22;10324669;28;880;-71
2023/12/21 06:31:20;;;;;;;;;;;;;;;17.11;45.80;98081.34;10326547;28;1184;-71
2023/12/21 06:36:16;;;;;;;;;;;;;;;17.12;45.91;98075.16;10331633;28;1500;-71
2023/12/21 06:41:12;;;;;;;;;;;;;;;17.16;45.69;98082.75;10331926;28;1914;-72
2023/12/21 06:46:08;;;;;;;;;;;;;;;17.18;45.74;98061.59;10331504;28;838;-72
2023/12/21 06:51:03;;;;;;;;;;;;;;;17.13;45.94;98040.81;10332146;28;834;-72
2023/12/21 06:56:00;;;;;;;;;;;;;;;17.15;45.80;98023.13;10330815;28;1048;-72
2023/12/21 07:00:56;;;;;;;;;;;;;;;17.16;45.92;98040.63;10330362;28;1957;-72
2023/12/21 07:05:51;;;;;;;;;;;;;;;17.12;45.71;98019.88;10330368;28;838;-71
2023/12/21 07:10:47;;;;;;;;;;;;;;;17.05;45.94;98008.91;10330645;28;833;-69
2023/12/21 07:15:43;;;;;;;;;;;;;;;17.00;46.08;97998.72;10331164;28;817;-71
2023/12/21 07:20:39;;;;;;;;;;;;;;;16.93;46.40;97981.66;10330211;28;1886;-71
2023/12/21 07:25:35;;;;;;;;;;;;;;;16.84;46.40;97962.03;10330875;28;810;-70
2023/12/21 07:30:31;;;;;;;;;;;;;;;16.76;46.67;97934.53;10330065;28;868;-72
2023/12/21 07:35:27;;;;;;;;;;;;;;;16.71;46.74;97926.97;10329860;28;1021;-70
2023/12/21 07:40:23;;;;;;;;;;;;;;;16.73;46.65;97925.06;10330225;28;1913;-70
2023/12/21 07:45:18;;;;;;;;;;;;;;;16.76;46.60;97913.50;10328583;28;789;-70
2023/12/21 07:50:14;;;;;;;;;;;;;;;16.74;46.55;97903.09;10331109;28;850;-70
2023/12/21 07:55:10;;;;;;;;;;;;;;;16.80;46.42;97876.38;10330711;28;881;-72
2023/12/21 08:00:06;;;;;;;;;;;;;;;16.84;46.41;97864.69;10328631;28;1940;-70
2023/12/21 08:05:03;;;;;;;;;;;;;;;16.89;46.36;97847.75;10329169;28;788;-71
2023/12/21 08:10:01;;;;;;;;;;;;;;;16.93;46.19;97815.03;10328899;28;868;-70
2023/12/21 08:14:57;;;;;;;;;;;;;;;16.85;46.39;97833.97;10328717;28;794;-70
2023/12/21 08:19:53;;;;;;;;;;;;;;;16.91;46.25;97809.03;10328693;28;1890;-70
2023/12/21 08:24:56;;;;;;;;;;;;;;;16.95;46.38;97797.31;10328248;28;956;-72
2023/12/21 08:29:52;;;;;;;;;;;;;;;16.96;46.37;97783.22;10328638;28;794;-72
2023/12/21 08:34:48;;;;;;;;;;;;;;;17.01;46.21;97792.47;10327789;28;770;-71
2023/12/21 08:39:44;;;;;;;;;;;;;;;17.08;45.92;97808.66;10327932;28;1985;-71
2023/12/21 08:44:39;;;;;;;;;;;;;;;17.07;45.90;97814.88;10327454;28;776;-71
2023/12/21 08:49:35;;;;;;;;;;;;;;;17.06;46.16;97792.97;10326680;28;1019;-71
2023/12/21 08:54:31;;;;;;;;;;;;;;;17.07;46.05;97792.00;10326213;28;809;-72
2023/12/21 08:59:27;;;;;;;;;;;;;;;17.07;45.95;97783.28;10326888;28;1902;-71
2023/12/21 09:04:23;;;;;;;;;;;;;;;17.08;46.09;97767.41;10327492;28;878;-71
2023/12/21 09:09:19;;;;;;;;;;;;;;;17.08;45.94;97756.88;10326563;28;928;-72
2023/12/21 09:14:15;;;;;;;;;;;;;;;17.06;46.23;97750.88;10326414;28;988;-72
2023/12/21 09:19:10;;;;;;;;;;;;;;;17.09;46.12;97747.16;10325627;28;1898;-71
2023/12/21 09:24:08;;;;;;;;;;;;;;;17.12;46.19;97746.13;10326101;28;925;-71
2023/12/21 09:29:05;;;;;;;;;;;;;;;17.11;46.13;97726.84;10326253;28;863;-72
2023/12/21 09:34:01;;;;;;;;;;;;;;;17.11;46.18;97691.75;10325254;28;1214;-71
2023/12/21 09:38:56;;;;;;;;;;;;;;;17.12;46.09;97675.88;10324925;28;1914;-71
2023/12/21 09:43:52;;;;;;;;;;;;;;;17.09;46.01;97674.31;10325612;28;778;-72
2023/12/21 09:48:48;;;;;;;;;;;;;;;17.09;46.12;97665.56;10326470;28;893;-71
2023/12/21 09:53:44;;;;;;;;;;;;;;;17.12;46.10;97677.66;10324851;28;999;-71
2023/12/21 09:58:40;;;;;;;;;;;;;;;17.11;46.26;97678.59;10325224;28;1949;-72
2023/12/21 10:03:36;;;;;;;;;;;;;;;17.12;46.07;97662.72;10324674;28;1028;-72
2023/12/21 10:08:33;;;;;;;;;;;;;;;17.14;46.11;97652.91;10331221;28;789;-71
2023/12/21 10:13:29;;;;;;;;;;;;;;;17.14;46.14;97641.56;10334029;28;802;-72
2023/12/21 10:18:26;;;;;;;;;;;;;;;17.11;46.22;97634.72;10333220;28;1899;-71
2023/12/21 10:23:22;;;;;;;;;;;;;;;17.16;45.98;97616.78;10333036;28;858;-71
2023/12/21 10:28:18;;;;;;;;;;;;;;;17.17;46.34;97633.41;10333566;28;782;-72
2023/12/21 10:33:15;;;;;;;;;;;;;;;17.14;46.15;97616.06;10333894;28;896;-71
2023/12/21 10:38:10;;;;;;;;;;;;;;;17.20;46.10;97618.22;10333176;28;1902;-71
2023/12/21 10:43:06;;;;;;;;;;;;;;;17.18;46.08;97592.97;10332266;28;861;-72
2023/12/21 10:48:02;;;;;;;;;;;;;;;17.20;46.08;97591.06;10332083;28;782;-71
2023/12/21 10:52:58;;;;;;;;;;;;;;;17.18;46.08;97571.91;10331890;28;910;-69
2023/12/21 10:57:54;;;;;;;;;;;;;;;17.14;46.36;97555.53;10332271;28;1964;-69
2023/12/21 11:02:50;;;;;;;;;;;;;;;17.09;46.69;97563.75;10331497;28;779;-69
2023/12/21 11:07:46;;;;;;;;;;;;;;;17.08;46.75;97548.06;10331519;28;907;-69
2023/12/21 11:12:42;;;;;;;;;;;;;;;17.09;47.01;97549.75;10331195;28;788;-72
2023/12/21 11:17:38;;;;;;;;;;;;;;;17.14;46.98;97539.72;10329793;28;1961;-72
2023/12/21 11:22:34;;;;;;;;;;;;;;;17.20;46.78;97517.34;10330786;28;981;-76
2023/12/21 11:27:29;;;;;;;;;;;;;;;17.20;46.66;97518.19;10331411;28;826;-72
2023/12/21 11:32:25;;;;;;;;;;;;;;;17.19;47.06;97513.88;10330404;28;973;-72
2023/12/21 11:37:21;;;;;;;;;;;;;;;17.25;47.00;97520.47;10330280;28;1981;-72
2023/12/21 11:42:17;;;;;;;;;;;;;;;17.26;47.01;97515.06;10330764;28;802;-76
2023/12/21 11:47:14;;;;;;;;;;;;;;;17.23;47.05;97504.78;10329896;28;952;-72
2023/12/21 11:52:10;;;;;;;;;;;;;;;17.27;46.70;97514.13;10329635;28;873;-72
2023/12/21 11:57:06;;;;;;;;;;;;;;;17.26;46.97;97488.75;10329648;28;1894;-72
2023/12/21 12:02:02;;;;;;;;;;;;;;;17.24;47.14;97488.06;10329331;28;778;-71
2023/12/21 12:06:58;;;;;;;;;;;;;;;17.27;47.00;97477.28;10329107;28;860;-72
2023/12/21 12:11:54;;;;;;;;;;;;;;;17.28;47.08;97457.88;10329554;28;801;-72
2023/12/21 12:16:50;;;;;;;;;;;;;;;17.29;46.78;97453.44;10329400;28;806;-72
2023/12/21 12:21:46;;;;;;;;;;;;;;;17.29;47.08;97451.69;10327831;28;1889;-71
2023/12/21 12:26:41;;;;;;;;;;;;;;;17.30;46.84;97482.31;10328325;28;924;-71
2023/12/21 12:31:37;;;;;;;;;;;;;;;17.29;46.79;97461.34;10327886;28;846;-72
2023/12/21 12:36:33;;;;;;;;;;;;;;;17.29;46.95;97432.38;10327474;28;1535;-71
2023/12/21 12:41:29;;;;;;;;;;;;;;;17.33;46.88;97439.09;10327726;28;1910;-72
2023/12/21 12:46:26;;;;;;;;;;;;;;;17.31;46.70;97425.22;10327679;28;777;-72
2023/12/21 12:51:22;;;;;;;;;;;;;;;17.31;46.91;97422.56;10327855;28;953;-71
2023/12/21 12:56:18;;;;;;;;;;;;;;;17.36;46.82;97433.59;10327995;28;849;-72
2023/12/21 13:01:14;;;;;;;;;;;;;;;17.34;46.97;97408.34;10327654;28;1969;-72
2023/12/21 13:06:10;;;;;;;;;;;;;;;17.30;46.90;97407.75;10324100;28;1171;-71
2023/12/21 13:11:06;;;;;;;;;;;;;;;17.36;46.96;97406.44;10326428;28;814;-71
2023/12/21 13:16:02;;;;;;;;;;;;;;;17.35;46.93;97402.97;10325757;28;822;-72
2023/12/21 13:20:58;;;;;;;;;;;;;;;17.33;46.99;97381.16;10325856;28;1955;-71
2023/12/21 13:25:54;;;;;;;;;;;;;;;17.38;46.84;97404.50;10326082;28;862;-72
2023/12/21 13:30:49;;;;;;;;;;;;;;;17.36;46.88;97395.88;10325576;28;944;-71
2023/12/21 13:35:45;;;;;;;;;;;;;;;17.27;47.23;97422.00;10325140;28;1310;-71
2023/12/21 13:40:41;;;;;;;;;;;;;;;17.30;47.19;97421.75;10324854;28;1914;-71
2023/12/21 13:45:37;;;;;;;;;;;;;;;17.36;47.05;97427.50;10325070;28;859;-72
2023/12/21 13:50:33;;;;;;;;;;;;;;;17.35;47.07;97412.66;10325281;28;770;-72
2023/12/21 13:55:29;;;;;;;;;;;;;;;17.35;47.05;97416.13;10325105;28;940;-71
2023/12/21 14:00:25;;;;;;;;;;;;;;;17.38;46.95;97415.88;10324680;28;1897;-71
2023/12/21 14:05:21;;;;;;;;;;;;;;;17.37;47.13;97416.00;10323567;28;925;-72
2023/12/21 14:10:16;;;;;;;;;;;;;;;17.37;47.11;97405.44;10324089;28;885;-71
2023/12/21 14:15:12;;;;;;;;;;;;;;;17.36;47.10;97395.88;10324116;28;766;-71
2023/12/21 14:20:10;;;;;;;;;;;;;;;17.34;47.21;97403.91;10324415;28;1960;-71
2023/12/21 14:25:06;;;;;;;;;;;;;;;17.34;47.08;97400.44;10323979;28;893;-71
2023/12/21 14:30:02;;;;;;;;;;;;;;;17.39;47.01;97409.66;10324789;28;846;-71
2023/12/21 14:34:58;;;;;;;;;;;;;;;17.38;46.88;97404.50;10323888;28;798;-71
2023/12/21 14:39:54;;;;;;;;;;;;;;;17.34;47.08;97424.97;10324926;28;1902;-71
2023/12/21 14:44:52;;;;;;;;;;;;;;;17.29;47.07;97433.25;10323253;28;881;-71
2023/12/21 14:49:48;;;;;;;;;;;;;;;17.26;47.05;97417.66;10324071;28;838;-71
2023/12/21 14:54:44;;;;;;;;;;;;;;;17.25;46.91;97412.53;10329893;28;802;-71
2023/12/21 14:59:40;;;;;;;;;;;;;;;17.21;47.13;97418.97;10330912;28;1957;-71
2023/12/21 15:04:36;;;;;;;;;;;;;;;17.17;47.10;97436.00;10330901;28;1258;-72
2023/12/21 15:09:32;;;;;;;;;;;;;;;17.24;47.11;97445.09;10330657;28;844;-72
2023/12/21 15:14:28;;;;;;;;;;;;;;;17.22;47.07;97455.72;10330423;28;838;-72
2023/12/21 15:19:24;;;;;;;;;;;;;;;17.26;46.70;97472.94;10329524;28;1959;-71
2023/12/21 15:24:19;;;;;;;;;;;;;;;17.23;46.89;97440.78;10330671;28;913;-71
2023/12/21 15:29:15;;;;;;;;;;;;;;;17.27;46.63;97435.16;10329849;28;876;-72
2023/12/21 15:34:12;;;;;;;;;;;;;;;17.28;46.75;97442.09;10329730;28;833;-71
2023/12/21 15:39:08;;;;;;;;;;;;;;;17.27;47.00;97429.88;10328827;28;1918;-73
2023/12/21 15:44:03;;;;;;;;;;;;;;;17.31;46.69;97452.38;10329832;28;806;-72
2023/12/21 15:48:59;;;;;;;;;;;;;;;17.33;46.83;97464.59;10329040;28;884;-71
2023/12/21 15:53:55;;;;;;;;;;;;;;;17.46;46.49;97486.38;10329624;28;913;-71
2023/12/21 15:58:51;;;;;;;;;;;;;;;17.43;46.04;97505.06;10328896;28;1902;-71
2023/12/21 16:03:47;;;;;;;;;;;;;;;17.38;46.48;97517.75;10327874;28;810;-71
2023/12/21 16:08:43;;;;;;;;;;;;;;;17.47;45.98;97480.16;10329479;28;822;-71
2023/12/21 16:13:39;;;;;;;;;;;;;;;17.38;46.49;97483.50;10329377;28;857;-77
2023/12/21 16:18:34;;;;;;;;;;;;;;;17.35;46.85;97473.22;10328593;28;1885;-70
2023/12/21 16:23:30;;;;;;;;;;;;;;;17.39;46.62;97458.84;10328435;28;877;-72
2023/12/21 16:28:26;;;;;;;;;;;;;;;17.35;46.98;97487.22;10328285;28;925;-71
2023/12/21 16:33:22;;;;;;;;;;;;;;;17.38;46.98;97494.03;10328039;28;781;-70
2023/12/21 16:38:18;;;;;;;;;;;;;;;17.48;46.29;97498.47;10328413;28;1914;-71
2023/12/21 16:43:14;;;;;;;;;;;;;;;17.40;46.67;97507.94;10327609;28;806;-71
2023/12/21 16:48:10;;;;;;;;;;;;;;;17.45;46.25;97564.56;10328060;28;829;-71
2023/12/21 16:53:06;;;;;;;;;;;;;;;17.41;46.74;97538.56;10327276;28;848;-71
2023/12/21 16:58:04;;;;;;;;;;;;;;;17.40;46.89;97561.44;10328009;28;1964;-71
2023/12/21 17:03:00;;;;;;;;;;;;;;;17.45;46.65;97553.19;10326853;28;834;-71
2023/12/21 17:07:56;;;;;;;;;;;;;;;17.45;46.64;97563.72;10326710;28;896;-71
2023/12/21 17:12:55;;;;;;;;;;;;;;;17.45;46.78;97680.44;10326514;28;1389;-71
2023/12/21 17:17:51;;;;;;;;;;;;;;;17.47;46.61;97691.69;10326089;28;1894;-71
2023/12/21 17:22:47;;;;;;;;;;;;;;;17.48;46.76;97709.19;10327110;28;850;-70
2023/12/21 17:27:44;;;;;;;;;;;;;;;17.43;46.54;97700.78;10326117;28;861;-71
2023/12/21 17:32:40;;;;;;;;;;;;;;;17.46;46.35;97715.50;10326018;28;834;-71
2023/12/21 17:37:36;;;;;;;;;;;;;;;17.47;46.36;97689.03;10326160;28;1933;-70
2023/12/21 17:42:34;;;;;;;;;;;;;;;17.47;46.37;97704.00;10325946;28;991;-71
2023/12/21 17:47:32;;;;;;;;;;;;;;;17.51;46.21;97665.97;10325707;28;970;-71
2023/12/21 17:52:28;;;;;;;;;;;;;;;17.47;46.34;97653.97;10326052;28;849;-70
2023/12/21 17:57:23;;;;;;;;;;;;;;;17.48;45.76;97690.75;10326034;28;1898;-71
2023/12/21 18:02:19;;;;;;;;;;;;;;;17.48;45.98;97698.66;10326224;28;837;-71
2023/12/21 18:07:15;;;;;;;;;;;;;;;17.51;45.67;97719.47;10325238;28;991;-71
2023/12/21 18:12:11;;;;;;;;;;;;;;;17.50;46.13;97735.38;10325762;28;852;-70
2023/12/21 18:17:07;;;;;;;;;;;;;;;17.53;45.81;97745.72;10325051;28;755;-70
2023/12/21 18:22:05;;;;;;;;;;;;;;;17.51;45.96;97763.44;10325514;28;1890;-70
2023/12/21 18:27:01;;;;;;;;;;;;;;;17.52;45.92;97778.25;10327188;28;825;-70
2023/12/21 18:31:57;;;;;;;;;;;;;;;17.58;45.79;97796.28;10333391;28;1093;-70
2023/12/21 18:36:53;;;;;;;;;;;;;;;17.51;45.89;97755.53;10332162;28;1457;-70
2023/12/21 18:41:49;;;;;;;;;;;;;;;17.55;45.99;97738.53;10332987;28;1901;-70
2023/12/21 18:46:45;;;;;;;;;;;;;;;17.60;46.00;97760.09;10332823;28;950;-70
2023/12/21 18:51:42;;;;;;;;;;;;;;;17.56;45.78;97729.69;10332012;28;873;-70
2023/12/21 18:56:38;;;;;;;;;;;;;;;17.63;45.78;97738.81;10331982;28;845;-70
2023/12/21 19:01:33;;;;;;;;;;;;;;;17.61;45.73;97761.78;10332503;28;1955;-70
2023/12/21 19:06:29;;;;;;;;;;;;;;;17.60;45.93;97767.16;10331745;28;979;-71
2023/12/21 19:11:25;;;;;;;;;;;;;;;17.67;45.74;97763.13;10332005;28;809;-71
2023/12/21 19:16:21;;;;;;;;;;;;;;;17.64;45.94;97782.63;10331733;28;794;-70
2023/12/21 19:21:17;;;;;;;;;;;;;;;17.60;45.93;97767.16;10331520;28;1955;-70
2023/12/21 19:26:13;;;;;;;;;;;;;;;17.66;45.81;97778.09;10330847;28;873;-70
2023/12/21 19:31:09;;;;;;;;;;;;;;;17.66;45.80;97780.75;10331496;28;865;-70
2023/12/21 19:36:06;;;;;;;;;;;;;;;17.64;45.81;97781.81;10330624;28;1243;-70
2023/12/21 19:41:02;;;;;;;;;;;;;;;17.68;45.82;97786.75;10329243;28;1914;-70
2023/12/21 19:46:00;;;;;;;;;;;;;;;17.68;45.58;97799.91;10330671;28;840;-70
2023/12/21 19:50:56;;;;;;;;;;;;;;;17.66;45.65;97836.06;10330616;28;818;-70
2023/12/21 19:55:52;;;;;;;;;;;;;;;17.73;45.61;97860.16;10329723;28;794;-70
2023/12/21 20:00:48;;;;;;;;;;;;;;;17.68;45.87;97862.28;10330070;28;1949;-70
2023/12/21 20:05:43;;;;;;;;;;;;;;;17.70;45.74;97865.66;10329991;28;929;-70
2023/12/21 20:10:39;;;;;;;;;;;;;;;17.72;45.59;97867.22;10329151;28;821;-70
2023/12/21 20:15:35;;;;;;;;;;;;;;;17.68;45.78;97862.28;10329483;28;829;-70
2023/12/21 20:20:32;;;;;;;;;;;;;;;17.68;45.51;97847.34;10328626;28;1909;-70
2023/12/21 20:25:27;;;;;;;;;;;;;;;17.73;45.46;97844.34;10329127;28;794;-70
2023/12/21 20:30:24;;;;;;;;;;;;;;;17.71;45.52;97854.16;10328263;28;981;-70
2023/12/21 20:35:20;;;;;;;;;;;;;;;17.69;45.56;97872.72;10328440;28;1460;-70
2023/12/21 20:40:16;;;;;;;;;;;;;;;17.65;45.82;97870.41;10327874;28;1914;-70
2023/12/21 20:45:12;;;;;;;;;;;;;;;17.65;45.66;97894.97;10327633;28;833;-71
2023/12/21 20:50:08;;;;;;;;;;;;;;;17.66;45.83;97898.47;10327346;28;833;-70
2023/12/21 20:55:04;;;;;;;;;;;;;;;17.61;45.64;97906.69;10326693;28;925;-70
2023/12/21 21:00:00;;;;;;;;;;;;;;;17.61;45.92;97903.22;10327050;28;1893;-71
2023/12/21 21:04:56;;;;;;;;;;;;;;;17.61;45.86;97895.31;10326986;28;813;-71
2023/12/21 21:09:51;;;;;;;;;;;;;;;17.58;45.90;97893.75;10326757;28;818;-70
2023/12/21 21:14:47;;;;;;;;;;;;;;;17.58;45.91;97909.56;10326776;28;798;-70
2023/12/21 21:19:43;;;;;;;;;;;;;;;17.60;45.84;97925.22;10326364;28;1894;-70
2023/12/21 21:24:40;;;;;;;;;;;;;;;17.61;45.83;97938.31;10326274;28;890;-70
2023/12/21 21:29:36;;;;;;;;;;;;;;;17.57;45.81;97941.25;10326687;28;854;-71
2023/12/21 21:34:32;;;;;;;;;;;;;;;17.56;45.68;97950.97;10326753;28;810;-70
2023/12/21 21:39:28;;;;;;;;;;;;;;;17.56;45.55;97950.97;10326267;28;1985;-70
2023/12/21 21:44:28;;;;;;;;;;;;;;;17.50;45.77;97944.34;10326065;28;868;-70
2023/12/21 21:49:24;;;;;;;;;;;;;;;17.50;46.03;97932.94;10325566;28;1609;-70
2023/12/21 21:54:20;;;;;;;;;;;;;;;17.46;45.75;97957.81;10326064;28;889;-70
2023/12/21 21:59:16;;;;;;;;;;;;;;;17.47;45.84;97956.88;10325915;28;1898;-70
2023/12/21 22:04:12;;;;;;;;;;;;;;;17.45;45.95;97964.06;10324818;28;825;-70
2023/12/21 22:09:08;;;;;;;;;;;;;;;17.42;45.87;97969.50;10325803;28;861;-70
2023/12/21 22:14:04;;;;;;;;;;;;;;;17.39;45.91;97964.47;10325681;28;943;-70
2023/12/21 22:19:00;;;;;;;;;;;;;;;17.38;46.11;97973.31;10324953;28;1951;-70
2023/12/21 22:23:56;;;;;;;;;;;;;;;17.36;46.05;98001.56;10324346;28;941;-70
2023/12/21 22:28:51;;;;;;;;;;;;;;;17.39;45.96;97998.69;10324793;28;794;-70
2023/12/21 22:33:47;;;;;;;;;;;;;;;17.35;45.78;97999.88;10325370;28;874;-70
2023/12/21 22:38:43;;;;;;;;;;;;;;;17.34;45.92;98008.72;10323746;28;1898;-70
2023/12/21 22:43:40;;;;;;;;;;;;;;;17.33;45.94;98023.69;10325525;28;889;-70
2023/12/21 22:48:36;;;;;;;;;;;;;;;17.31;45.84;98007.13;10324433;28;855;-70
2023/12/21 22:53:32;;;;;;;;;;;;;;;17.30;45.90;98016.00;10324404;28;930;-70
2023/12/21 22:58:27;;;;;;;;;;;;;;;17.29;46.05;98009.88;10324833;28;1894;-70
2023/12/21 23:03:23;;;;;;;;;;;;;;;17.28;45.97;97989.75;10324207;28;873;-70
2023/12/21 23:08:19;;;;;;;;;;;;;;;17.29;45.96;98003.75;10324706;28;777;-70
2023/12/21 23:13:18;;;;;;;;;;;;;;;17.28;45.90;98002.91;10324378;28;794;-70
2023/12/21 23:18:14;;;;;;;;;;;;;;;17.29;45.91;97990.59;10330656;28;1878;-70
2023/12/21 23:23:10;;;;;;;;;;;;;;;17.29;45.74;97996.72;10331434;28;879;-70
2023/12/21 23:28:06;;;;;;;;;;;;;;;17.29;45.84;97990.59;10330954;28;948;-70
2023/12/21 23:33:02;;;;;;;;;;;;;;;17.28;45.85;98010.81;10329986;28;1173;-70
2023/12/21 23:37:57;;;;;;;;;;;;;;;17.28;45.69;98009.97;10330592;28;1981;-70
2023/12/21 23:42:53;;;;;;;;;;;;;;;17.27;45.66;98026.75;10330287;28;965;-70
2023/12/21 23:47:49;;;;;;;;;;;;;;;17.26;45.70;98025.88;10329413;28;899;-70
2023/12/21 23:52:45;;;;;;;;;;;;;;;17.26;45.67;98025.03;10329912;28;818;-70
2023/12/21 23:57:41;;;;;;;;;;;;;;;17.26;45.77;98027.66;10328998;28;1890;-70
